Time;durP1;ratioP1;P1;durP2;ratioP2;P2;SDS_P1;SDS_P2;PMS_P1;PMS_P2;Temp;Humidity;BMP_temperature;BMP_pressure;BME280_temperature;BME280_humidity;BME280_pressure;Samples;Min_cycle;Max_cycle;Signal;HPM_P1;HPM_P2
2022/08/21 00:00:55;;;;;;;3.47;1.20;;;16.70;99.90;;;;;;5051611;28;20025;-73
2022/08/21 00:03:21;;;;;;;2.42;1.45;;;16.60;99.90;;;;;;5052155;28;20076;-72
2022/08/21 00:05:50;;;;;;;4.13;1.38;;;16.70;99.90;;;;;;5052227;28;20029;-72
2022/08/21 00:08:20;;;;;;;4.30;1.23;;;16.80;99.90;;;;;;5051374;28;20029;-72
2022/08/21 00:10:46;;;;;;;3.40;1.35;;;16.70;99.90;;;;;;5051211;28;20048;-72
2022/08/21 00:13:13;;;;;;;2.85;1.35;;;16.70;99.90;;;;;;5051806;28;20040;-72
2022/08/21 00:15:39;;;;;;;2.28;1.20;;;16.60;99.90;;;;;;5051760;28;20033;-71
2022/08/21 00:18:07;;;;;;;2.45;1.38;;;16.70;99.90;;;;;;5048837;28;20040;-73
2022/08/21 00:20:34;;;;;;;5.68;1.85;;;16.70;99.90;;;;;;5051459;28;20030;-72
2022/08/21 00:23:00;;;;;;;1.17;1.00;;;16.70;99.90;;;;;;5051757;28;20025;-72
2022/08/21 00:25:26;;;;;;;1.92;1.23;;;16.60;99.90;;;;;;5033478;28;20068;-73
2022/08/21 00:27:53;;;;;;;2.63;1.23;;;16.70;99.90;;;;;;5051959;28;20025;-74
2022/08/21 00:30:20;;;;;;;3.60;1.27;;;16.70;99.90;;;;;;5052019;28;20029;-74
2022/08/21 00:32:46;;;;;;;3.75;1.70;;;16.60;99.90;;;;;;5045993;28;20467;-72
2022/08/21 00:35:32;;;;;;;6.25;1.48;;;16.60;99.90;;;;;;5039685;28;20056;-72
2022/08/21 00:37:58;;;;;;;3.75;1.67;;;16.60;99.90;;;;;;5041051;28;20097;-72
2022/08/21 00:40:38;;;;;;;7.03;1.20;;;16.60;99.90;;;;;;5051218;28;20424;-73
2022/08/21 00:43:07;;;;;;;8.68;1.88;;;16.60;99.90;;;;;;5051696;28;20059;-73
2022/08/21 00:45:33;;;;;;;5.15;1.38;;;16.60;99.90;;;;;;5050500;28;20052;-73
2022/08/21 00:47:59;;;;;;;4.05;1.58;;;16.50;99.90;;;;;;5051330;28;20054;-71
2022/08/21 00:50:29;;;;;;;1.35;1.02;;;16.50;99.90;;;;;;5043720;28;20029;-74
2022/08/21 00:52:55;;;;;;;3.00;1.27;;;16.40;99.90;;;;;;5043308;28;20077;-74
2022/08/21 00:55:22;;;;;;;6.80;1.27;;;16.40;99.90;;;;;;5051232;28;20057;-73
2022/08/21 00:57:53;;;;;;;3.53;1.27;;;16.40;99.90;;;;;;5051357;28;20101;-73
2022/08/21 01:00:24;;;;;;;6.90;1.77;;;16.30;99.90;;;;;;5034392;28;20021;-73
2022/08/21 01:02:50;;;;;;;10.68;2.45;;;16.40;99.90;;;;;;5051129;28;20033;-74
2022/08/21 01:05:16;;;;;;;1.67;1.10;;;16.40;99.90;;;;;;5051081;28;20037;-72
2022/08/21 01:07:44;;;;;;;1.77;1.35;;;16.40;99.90;;;;;;5050956;28;20465;-71
2022/08/21 01:10:10;;;;;;;4.53;1.42;;;16.40;99.90;;;;;;5051552;28;20473;-71
2022/08/21 01:12:36;;;;;;;6.60;1.75;;;16.40;99.90;;;;;;5050944;28;20040;-73
2022/08/21 01:15:04;;;;;;;1.23;1.10;;;16.30;99.90;;;;;;5051403;28;20084;-71
2022/08/21 01:17:31;;;;;;;2.75;1.58;;;16.40;99.90;;;;;;5032364;28;20104;-72
2022/08/21 01:20:00;;;;;;;3.05;1.40;;;16.40;99.90;;;;;;5051039;28;20061;-72
2022/08/21 01:22:26;;;;;;;4.90;1.20;;;16.40;99.90;;;;;;5050692;28;20026;-73
2022/08/21 01:24:52;;;;;;;2.20;1.50;;;16.20;99.90;;;;;;5051049;28;20041;-74
2022/08/21 01:27:18;;;;;;;2.90;1.67;;;16.20;99.90;;;;;;5043621;28;20026;-72
2022/08/21 01:29:59;;;;;;;5.88;1.42;;;16.20;99.90;;;;;;5042790;28;20038;-73
2022/08/21 01:32:25;;;;;;;1.30;0.80;;;16.30;99.90;;;;;;5045056;28;20037;-73
2022/08/21 01:34:53;;;;;;;2.72;1.40;;;16.30;99.90;;;;;;5051111;28;20029;-73
2022/08/21 01:37:21;;;;;;;3.38;1.65;;;16.30;99.90;;;;;;5051027;28;20105;-72
2022/08/21 01:39:47;;;;;;;5.63;1.40;;;16.30;99.90;;;;;;5032922;28;20081;-73
2022/08/21 01:42:13;;;;;;;2.92;1.63;;;16.30;99.90;;;;;;5041256;28;20033;-72
2022/08/21 01:44:39;;;;;;;2.75;1.30;;;16.40;99.90;;;;;;5050512;28;20026;-72
2022/08/21 01:47:08;;;;;;;1.80;1.10;;;16.30;99.90;;;;;;5050794;28;20064;-71
2022/08/21 01:49:35;;;;;;;2.80;1.30;;;16.40;99.90;;;;;;5051130;28;20025;-73
2022/08/21 01:52:01;;;;;;;3.80;1.55;;;16.30;99.90;;;;;;5053137;28;20043;-73
2022/08/21 01:54:27;;;;;;;6.38;1.73;;;16.30;99.90;;;;;;5054429;28;20029;-73
2022/08/21 01:56:54;;;;;;;5.97;2.30;;;16.30;99.90;;;;;;5054236;28;20030;-72
2022/08/21 01:59:22;;;;;;;2.45;1.65;;;16.30;99.90;;;;;;5054648;28;20442;-72
2022/08/21 02:01:48;;;;;;;1.25;0.88;;;16.30;99.90;;;;;;5054402;28;20052;-71
2022/08/21 02:04:14;;;;;;;2.50;1.63;;;16.30;99.90;;;;;;5053694;28;20033;-72
2022/08/21 02:06:40;;;;;;;2.10;1.45;;;16.30;99.90;;;;;;5054455;28;20107;-72
2022/08/21 02:09:08;;;;;;;6.47;1.98;;;16.30;99.90;;;;;;5054684;28;20032;-72
2022/08/21 02:11:34;;;;;;;2.33;1.30;;;16.20;99.90;;;;;;5053222;28;20052;-73
2022/08/21 02:14:00;;;;;;;2.15;1.30;;;16.10;99.90;;;;;;5054402;28;20136;-73
2022/08/21 02:16:26;;;;;;;6.72;1.77;;;16.10;99.90;;;;;;5053084;28;20072;-73
2022/08/21 02:18:52;;;;;;;3.95;1.88;;;16.10;99.90;;;;;;5054286;28;20164;-72
2022/08/21 02:21:17;;;;;;;3.20;1.40;;;16.10;99.90;;;;;;5054516;28;20576;-73
2022/08/21 02:23:43;;;;;;;3.92;1.63;;;16.00;99.90;;;;;;5054053;28;20068;-73
2022/08/21 02:26:10;;;;;;;5.35;1.08;;;16.00;99.90;;;;;;5053596;28;20029;-72
2022/08/21 02:28:36;;;;;;;3.40;1.70;;;16.00;99.90;;;;;;5053994;28;20034;-72
2022/08/21 02:31:03;;;;;;;2.58;1.27;;;15.90;99.90;;;;;;5053381;28;20029;-71
2022/08/21 02:33:29;;;;;;;2.60;1.63;;;15.80;99.90;;;;;;5053729;28;20022;-73
2022/08/21 02:35:56;;;;;;;3.67;1.67;;;15.70;99.90;;;;;;5053576;28;20571;-73
2022/08/21 02:38:26;;;;;;;2.25;1.17;;;15.70;99.90;;;;;;5052985;28;20033;-71
2022/08/21 02:40:53;;;;;;;3.22;1.88;;;15.70;99.90;;;;;;5053832;28;20013;-72
2022/08/21 02:43:21;;;;;;;1.55;1.17;;;15.60;99.90;;;;;;5051501;28;20034;-71
2022/08/21 02:45:47;;;;;;;4.43;1.50;;;15.60;99.90;;;;;;5052430;28;20040;-71
2022/08/21 02:48:17;;;;;;;4.53;1.83;;;15.50;99.90;;;;;;5053840;28;20023;-73
2022/08/21 02:50:48;;;;;;;6.93;2.40;;;15.50;99.90;;;;;;5046246;28;20093;-72
2022/08/21 02:53:16;;;;;;;6.07;2.17;;;15.50;99.90;;;;;;5052709;28;20025;-72
2022/08/21 02:55:43;;;;;;;3.30;1.70;;;15.50;99.90;;;;;;5053097;28;20021;-72
2022/08/21 02:58:09;;;;;;;3.05;1.63;;;15.40;99.90;;;;;;5052988;28;20041;-73
2022/08/21 03:00:36;;;;;;;5.55;1.42;;;15.40;99.90;;;;;;5052162;28;20026;-72
2022/08/21 03:03:03;;;;;;;5.07;1.83;;;15.40;99.90;;;;;;5052723;28;20041;-72
2022/08/21 03:05:31;;;;;;;2.92;1.35;;;15.40;99.90;;;;;;5053033;28;20520;-72
2022/08/21 03:07:58;;;;;;;2.70;1.50;;;15.30;99.90;;;;;;5053554;28;20123;-74
2022/08/21 03:10:24;;;;;;;2.22;1.17;;;15.40;99.90;;;;;;5053516;28;20029;-73
2022/08/21 03:12:51;;;;;;;11.35;1.90;;;15.30;99.90;;;;;;5053197;28;20466;-73
2022/08/21 03:15:20;;;;;;;2.83;1.63;;;15.40;99.90;;;;;;5053190;28;20695;-72
2022/08/21 03:17:47;;;;;;;2.05;1.45;;;15.30;99.90;;;;;;5052550;28;20452;-74
2022/08/21 03:20:15;;;;;;;5.55;1.67;;;15.20;99.90;;;;;;5035062;28;20044;-72
2022/08/21 03:22:41;;;;;;;1.10;1.00;;;15.20;99.90;;;;;;5052704;28;20033;-73
2022/08/21 03:25:08;;;;;;;3.30;1.50;;;15.20;99.90;;;;;;5052877;28;20044;-73
2022/08/21 03:27:34;;;;;;;15.48;2.03;;;15.20;99.90;;;;;;5050475;28;20037;-73
2022/08/21 03:30:00;;;;;;;4.47;1.65;;;15.20;99.90;;;;;;5049291;28;20523;-73
2022/08/21 03:32:26;;;;;;;7.95;1.70;;;15.20;99.90;;;;;;5049397;28;20041;-73
2022/08/21 03:34:52;;;;;;;3.25;1.63;;;15.20;99.90;;;;;;5052384;28;20039;-72
2022/08/21 03:37:18;;;;;;;6.22;2.03;;;15.20;99.90;;;;;;5052855;28;20029;-73
2022/08/21 03:39:44;;;;;;;5.93;1.65;;;15.20;99.90;;;;;;5052398;28;20034;-72
2022/08/21 03:42:10;;;;;;;2.63;1.48;;;15.20;99.90;;;;;;5052651;28;20423;-72
2022/08/21 03:44:37;;;;;;;4.00;1.85;;;15.10;99.90;;;;;;5052483;28;20045;-72
2022/08/21 03:47:03;;;;;;;2.17;1.83;;;15.10;99.90;;;;;;5051921;28;20046;-72
2022/08/21 03:49:28;;;;;;;3.80;2.00;;;15.10;99.90;;;;;;5052304;28;20037;-71
2022/08/21 03:51:54;;;;;;;9.93;2.15;;;15.10;99.90;;;;;;5052899;28;20048;-73
2022/08/21 03:54:20;;;;;;;8.80;1.85;;;15.10;99.90;;;;;;5051694;28;20040;-71
2022/08/21 03:56:46;;;;;;;3.33;1.58;;;15.10;99.90;;;;;;5051937;28;20430;-72
2022/08/21 03:59:11;;;;;;;1.55;1.10;;;15.10;99.90;;;;;;5052353;28;20021;-72
2022/08/21 04:01:37;;;;;;;2.63;2.05;;;15.10;99.90;;;;;;5051116;28;20047;-71
2022/08/21 04:04:04;;;;;;;3.35;1.50;;;15.10;99.90;;;;;;5051294;28;20483;-72
2022/08/21 04:06:30;;;;;;;2.88;1.27;;;15.10;99.90;;;;;;5051549;28;20488;-72
2022/08/21 04:08:56;;;;;;;7.50;1.40;;;15.10;99.90;;;;;;5052265;28;20044;-73
2022/08/21 04:11:21;;;;;;;4.05;1.85;;;15.10;99.90;;;;;;5051628;28;20028;-73
2022/08/21 04:13:48;;;;;;;1.85;1.30;;;15.00;99.90;;;;;;5051100;28;20095;-71
2022/08/21 04:16:13;;;;;;;5.68;2.17;;;15.00;99.90;;;;;;5051492;28;20108;-72
2022/08/21 04:18:39;;;;;;;7.45;1.88;;;15.00;99.90;;;;;;5051874;28;20044;-72
2022/08/21 04:21:09;;;;;;;3.15;1.30;;;14.90;99.90;;;;;;5041270;28;20017;-72
2022/08/21 04:23:35;;;;;;;1.85;1.35;;;14.90;99.90;;;;;;5052070;28;20028;-72
2022/08/21 04:26:01;;;;;;;4.70;1.98;;;14.90;99.90;;;;;;5051144;28;20025;-72
2022/08/21 04:28:27;;;;;;;2.35;1.48;;;14.90;99.90;;;;;;5051628;28;20653;-73
2022/08/21 04:30:54;;;;;;;3.72;1.85;;;14.80;99.90;;;;;;5051317;28;20077;-72
2022/08/21 04:33:21;;;;;;;3.17;1.85;;;14.80;99.90;;;;;;5051865;28;20040;-72
2022/08/21 04:35:47;;;;;;;1.95;1.40;;;14.80;99.90;;;;;;5051401;28;20017;-72
2022/08/21 04:38:13;;;;;;;2.90;1.80;;;14.80;99.90;;;;;;5051378;28;20026;-72
2022/08/21 04:40:38;;;;;;;2.97;1.48;;;14.80;99.90;;;;;;5051617;28;20120;-72
2022/08/21 04:43:08;;;;;;;3.17;2.03;;;14.80;99.90;;;;;;5051644;28;20025;-72
2022/08/21 04:45:44;;;;;;;2.65;1.60;;;14.90;99.90;;;;;;5051046;28;20033;-73
2022/08/21 04:48:13;;;;;;;3.00;1.65;;;14.90;99.90;;;;;;5031152;28;20042;-72
2022/08/21 04:50:41;;;;;;;6.47;2.15;;;14.80;99.90;;;;;;5031674;28;20095;-72
2022/08/21 04:53:11;;;;;;;5.28;2.00;;;14.90;99.90;;;;;;5031629;28;20060;-72
2022/08/21 04:55:38;;;;;;;7.97;2.25;;;14.90;99.90;;;;;;5030821;28;20034;-73
2022/08/21 04:58:07;;;;;;;3.22;1.88;;;14.90;99.90;;;;;;5031576;28;20030;-72
2022/08/21 05:00:33;;;;;;;4.05;2.00;;;15.00;99.90;;;;;;5030797;28;20030;-71
2022/08/21 05:03:00;;;;;;;3.42;1.80;;;14.90;99.90;;;;;;5031293;28;20048;-73
2022/08/21 05:05:29;;;;;;;4.20;2.00;;;14.90;99.90;;;;;;5031125;28;20117;-72
2022/08/21 05:07:56;;;;;;;1.83;1.45;;;14.90;99.90;;;;;;5028613;28;20033;-73
2022/08/21 05:10:22;;;;;;;2.67;1.65;;;14.90;99.90;;;;;;5026523;28;20023;-74
2022/08/21 05:12:48;;;;;;;4.72;2.05;;;14.90;99.90;;;;;;5030772;28;20025;-73
2022/08/21 05:15:16;;;;;;;12.23;2.33;;;14.90;99.90;;;;;;5031507;28;20049;-72
2022/08/21 05:17:42;;;;;;;2.15;1.65;;;15.00;99.90;;;;;;5030792;28;20029;-72
2022/08/21 05:20:13;;;;;;;1.60;1.30;;;15.00;99.90;;;;;;5030628;28;20029;-73
2022/08/21 05:22:39;;;;;;;3.85;1.67;;;15.10;99.90;;;;;;5011919;28;20562;-73
2022/08/21 05:25:08;;;;;;;2.33;1.55;;;15.10;99.90;;;;;;5030216;28;20481;-73
2022/08/21 05:27:33;;;;;;;11.30;1.77;;;15.20;99.90;;;;;;5031828;28;20079;-73
2022/08/21 05:29:59;;;;;;;4.65;2.17;;;15.20;99.90;;;;;;5034776;28;20109;-74
2022/08/21 05:32:27;;;;;;;3.45;2.00;;;15.20;99.90;;;;;;5017121;28;20030;-75
2022/08/21 05:34:54;;;;;;;5.78;1.60;;;15.30;99.90;;;;;;5016333;28;20092;-74
2022/08/21 05:37:20;;;;;;;9.15;2.03;;;15.40;99.90;;;;;;5034337;28;20049;-72
2022/08/21 05:39:46;;;;;;;7.03;2.20;;;15.50;99.90;;;;;;5034694;28;20030;-74
2022/08/21 05:42:12;;;;;;;13.48;2.53;;;15.50;99.90;;;;;;5034972;28;20030;-73
2022/08/21 05:44:47;;;;;;;6.85;1.80;;;15.60;99.90;;;;;;5032365;28;20394;-74
2022/08/21 05:47:12;;;;;;;3.92;2.30;;;15.60;99.90;;;;;;5044894;28;20152;-73
2022/08/21 05:49:38;;;;;;;4.70;2.28;;;15.70;99.90;;;;;;5052489;28;20056;-73
2022/08/21 05:52:04;;;;;;;5.35;2.15;;;15.70;99.90;;;;;;5052494;28;20029;-73
2022/08/21 05:54:30;;;;;;;2.60;1.48;;;15.80;99.90;;;;;;5053126;28;20031;-73
2022/08/21 05:56:56;;;;;;;3.88;1.92;;;15.80;99.90;;;;;;5054537;28;20029;-75
2022/08/21 05:59:22;;;;;;;3.10;2.05;;;15.90;99.90;;;;;;5053827;28;20021;-73
2022/08/21 06:01:48;;;;;;;10.88;2.03;;;15.90;99.90;;;;;;5033919;28;20025;-74
2022/08/21 06:04:14;;;;;;;5.47;2.13;;;15.90;99.90;;;;;;5035297;28;20076;-74
2022/08/21 06:06:40;;;;;;;2.03;1.60;;;15.80;99.90;;;;;;5050502;28;20036;-72
2022/08/21 06:09:05;;;;;;;12.10;1.92;;;15.90;99.90;;;;;;5049269;28;20076;-73
2022/08/21 06:11:33;;;;;;;4.00;1.65;;;15.90;99.90;;;;;;5032047;28;20713;-73
2022/08/21 06:14:00;;;;;;;12.02;2.25;;;15.90;99.90;;;;;;5051333;28;20025;-75
2022/08/21 06:16:26;;;;;;;2.33;1.60;;;15.90;99.90;;;;;;5053971;28;20481;-73
2022/08/21 06:18:53;;;;;;;5.38;2.10;;;16.00;99.90;;;;;;5054702;28;20047;-73
2022/08/21 06:21:18;;;;;;;3.22;1.85;;;16.00;99.90;;;;;;5052599;28;20036;-73
2022/08/21 06:23:44;;;;;;;2.75;1.50;;;16.00;99.90;;;;;;5053932;28;20025;-73
2022/08/21 06:26:12;;;;;;;3.38;1.95;;;16.10;99.90;;;;;;5053509;28;20085;-73
2022/08/21 06:28:38;;;;;;;2.72;1.95;;;16.00;99.90;;;;;;5035229;28;20776;-73
2022/08/21 06:31:22;;;;;;;6.20;2.33;;;16.10;99.90;;;;;;5053601;28;20583;-75
2022/08/21 06:33:48;;;;;;;5.95;2.53;;;16.10;99.90;;;;;;5037036;28;20063;-74
2022/08/21 06:36:14;;;;;;;3.42;1.80;;;16.20;99.90;;;;;;5053623;28;20049;-74
2022/08/21 06:38:40;;;;;;;3.70;1.98;;;16.30;99.90;;;;;;5035442;28;20027;-74
2022/08/21 06:41:06;;;;;;;4.68;1.90;;;16.30;99.90;;;;;;5053453;28;20115;-74
2022/08/21 06:43:36;;;;;;;6.57;2.05;;;16.30;99.90;;;;;;5051202;28;20041;-75
2022/08/21 06:46:02;;;;;;;10.25;2.47;;;16.40;99.90;;;;;;5053206;28;20111;-73
2022/08/21 06:48:29;;;;;;;2.38;1.58;;;16.50;99.90;;;;;;5050923;28;20477;-73
2022/08/21 06:50:55;;;;;;;6.00;3.17;;;16.70;99.90;;;;;;5050407;28;20025;-74
2022/08/21 06:53:21;;;;;;;5.85;2.40;;;16.80;99.90;;;;;;5052545;28;20047;-74
2022/08/21 06:55:47;;;;;;;4.32;2.55;;;16.80;99.90;;;;;;5051870;28;20481;-74
2022/08/21 06:58:13;;;;;;;3.15;2.28;;;16.90;99.90;;;;;;5050877;28;20035;-71
2022/08/21 07:00:43;;;;;;;4.10;2.55;;;17.00;99.90;;;;;;5050723;28;20055;-75
2022/08/21 07:03:27;;;;;;;3.67;2.58;;;17.20;99.90;;;;;;5048024;28;20041;-73
2022/08/21 07:05:53;;;;;;;5.47;2.75;;;17.30;99.90;;;;;;5052005;28;20101;-76
2022/08/21 07:08:20;;;;;;;4.20;2.42;;;17.40;99.90;;;;;;5052997;28;20079;-73
2022/08/21 07:10:46;;;;;;;4.47;2.47;;;17.60;99.90;;;;;;5053205;28;20025;-71
2022/08/21 07:13:12;;;;;;;5.88;2.67;;;17.60;99.90;;;;;;5052776;28;20057;-72
2022/08/21 07:15:38;;;;;;;7.63;2.33;;;17.80;99.90;;;;;;5052570;28;20393;-71
2022/08/21 07:18:04;;;;;;;3.78;2.15;;;17.80;99.90;;;;;;5050997;28;20085;-73
2022/08/21 07:20:30;;;;;;;4.43;2.15;;;17.90;99.90;;;;;;5032828;28;20428;-72
2022/08/21 07:22:59;;;;;;;4.45;1.67;;;18.10;99.90;;;;;;5049482;28;20034;-74
2022/08/21 07:25:25;;;;;;;8.68;2.38;;;18.00;99.90;;;;;;5052990;28;20029;-74
2022/08/21 07:27:51;;;;;;;10.82;3.20;;;18.30;99.90;;;;;;5034292;28;20059;-73
2022/08/21 07:30:16;;;;;;;4.90;2.10;;;18.30;99.90;;;;;;5051122;28;20042;-72
2022/08/21 07:32:42;;;;;;;10.10;2.03;;;18.40;99.90;;;;;;5051128;28;20056;-73
2022/08/21 07:35:08;;;;;;;5.00;1.60;;;18.50;99.90;;;;;;5052044;28;20044;-74
2022/08/21 07:37:33;;;;;;;2.30;1.50;;;18.70;99.90;;;;;;5052538;28;20036;-73
2022/08/21 07:39:59;;;;;;;6.18;1.70;;;18.80;99.90;;;;;;5034530;28;20366;-72
2022/08/21 07:42:26;;;;;;;2.67;1.65;;;18.90;99.90;;;;;;5034181;28;20096;-75
2022/08/21 07:44:51;;;;;;;4.63;2.45;;;19.00;99.90;;;;;;5052015;28;20102;-72
2022/08/21 07:47:17;;;;;;;4.07;2.42;;;19.10;99.90;;;;;;5052564;28;20714;-72
2022/08/21 07:49:43;;;;;;;7.40;1.85;;;19.20;99.90;;;;;;5051576;28;20043;-75
2022/08/21 07:52:08;;;;;;;2.72;1.80;;;19.20;99.90;;;;;;5050422;28;20059;-74
2022/08/21 07:54:34;;;;;;;10.35;3.05;;;19.30;99.90;;;;;;5032069;28;20022;-74
2022/08/21 07:57:01;;;;;;;1.88;1.42;;;19.40;99.90;;;;;;5031783;28;20037;-72
2022/08/21 07:59:27;;;;;;;5.70;1.67;;;19.40;99.90;;;;;;5051704;28;20036;-72
2022/08/21 08:01:53;;;;;;;5.15;1.48;;;19.60;99.90;;;;;;5049228;28;20108;-71
2022/08/21 08:04:18;;;;;;;4.32;1.38;;;19.60;99.90;;;;;;5047985;28;20045;-72
2022/08/21 08:06:45;;;;;;;1.38;0.68;;;19.70;99.90;;;;;;5049389;28;20037;-73
2022/08/21 08:09:11;;;;;;;5.20;1.80;;;19.70;99.90;;;;;;5047331;28;20844;-73
2022/08/21 08:11:40;;;;;;;2.40;1.55;;;19.70;99.90;;;;;;5046994;28;20037;-71
2022/08/21 08:14:06;;;;;;;6.63;1.33;;;19.70;99.90;;;;;;5031526;28;20036;-72
2022/08/21 08:16:31;;;;;;;4.55;1.20;;;19.80;99.90;;;;;;5047790;28;20472;-72
2022/08/21 08:18:57;;;;;;;4.55;1.55;;;19.90;99.90;;;;;;5033184;28;20500;-72
2022/08/21 08:21:23;;;;;;;5.47;1.42;;;19.90;99.90;;;;;;5032721;28;20025;-73
2022/08/21 08:23:49;;;;;;;5.60;2.08;;;20.00;99.90;;;;;;5048590;28;20709;-73
2022/08/21 08:26:15;;;;;;;5.13;1.65;;;20.00;99.90;;;;;;5052070;28;20040;-73
2022/08/21 08:28:42;;;;;;;3.30;1.67;;;20.10;99.90;;;;;;5049570;28;20150;-73
2022/08/21 08:31:08;;;;;;;12.50;1.35;;;20.20;99.90;;;;;;5045607;28;20030;-81
2022/08/21 08:33:33;;;;;;;3.15;1.40;;;20.30;99.90;;;;;;5044547;28;20056;-83
2022/08/21 08:35:59;;;;;;;6.13;1.33;;;20.50;99.90;;;;;;5033030;28;20025;-73
2022/08/21 08:38:25;;;;;;;1.95;1.05;;;20.60;99.90;;;;;;5050550;28;20056;-75
2022/08/21 08:41:02;;;;;;;2.47;1.17;;;20.70;99.90;;;;;;5049652;28;20029;-76
2022/08/21 08:43:30;;;;;;;4.68;1.17;;;20.80;99.90;;;;;;5050521;28;20043;-76
2022/08/21 08:46:01;;;;;;;3.80;1.02;;;20.80;99.90;;;;;;5050354;28;20041;-73
2022/08/21 08:48:44;;;;;;;2.45;1.08;;;20.90;99.90;;;;;;5050759;28;20470;-73
2022/08/21 08:51:19;;;;;;;5.50;1.25;;;21.10;99.90;;;;;;5046463;28;20025;-77
2022/08/21 08:54:15;;;;;;;4.55;1.15;;;21.20;99.90;;;;;;5046129;28;20025;-73
2022/08/21 08:56:41;;;;;;;0.73;0.60;;;21.40;99.90;;;;;;5048693;28;20059;-74
2022/08/21 08:59:17;;;;;;;2.38;1.08;;;21.50;99.90;;;;;;5050420;28;20029;-76
2022/08/21 09:01:43;;;;;;;1.08;0.70;;;21.60;99.90;;;;;;5035085;28;21010;-72
2022/08/21 09:04:11;;;;;;;1.88;0.70;;;21.60;99.90;;;;;;5051675;28;20078;-75
2022/08/21 09:06:47;;;;;;;1.30;0.80;;;21.70;99.90;;;;;;5052797;28;20035;-73
2022/08/21 09:09:38;;;;;;;1.80;0.95;;;21.70;99.90;;;;;;5054673;28;20009;-75
2022/08/21 09:12:15;;;;;;;1.65;0.93;;;21.70;99.90;;;;;;5052937;28;20079;-74
2022/08/21 09:14:56;;;;;;;4.75;1.38;;;21.80;99.90;;;;;;5054985;28;20091;-75
2022/08/21 09:17:55;;;;;;;1.75;0.88;;;21.80;99.90;;;;;;5035636;28;20068;-73
2022/08/21 09:20:37;;;;;;;2.05;0.80;;;21.80;99.90;;;;;;5050495;28;20037;-73
2022/08/21 09:23:24;;;;;;;2.83;1.30;;;21.80;99.90;;;;;;5035819;28;20032;-71
2022/08/21 09:26:04;;;;;;;3.83;1.33;;;21.80;99.90;;;;;;5052625;28;20045;-73
2022/08/21 09:28:36;;;;;;;7.13;1.63;;;21.80;99.90;;;;;;5053023;28;20038;-71
2022/08/21 09:31:06;;;;;;;3.75;1.33;;;21.70;99.90;;;;;;5035191;28;20128;-73
2022/08/21 09:33:32;;;;;;;4.10;1.17;;;21.60;99.90;;;;;;5052107;28;20024;-73
2022/08/21 09:35:58;;;;;;;2.38;0.73;;;21.70;99.90;;;;;;5054811;28;20029;-71
2022/08/21 09:38:36;;;;;;;2.88;0.80;;;21.70;99.90;;;;;;5054545;28;20465;-77
2022/08/21 09:41:08;;;;;;;2.15;0.70;;;21.90;99.90;;;;;;5036512;28;20048;-72
2022/08/21 09:43:35;;;;;;;2.00;1.20;;;22.00;99.90;;;;;;5052141;28;20170;-73
2022/08/21 09:46:19;;;;;;;3.00;1.08;;;22.20;99.90;;;;;;5052626;28;20048;-74
2022/08/21 09:48:48;;;;;;;2.65;0.80;;;22.30;99.90;;;;;;5054127;28;21341;-74
2022/08/21 09:51:24;;;;;;;1.70;0.90;;;22.40;99.90;;;;;;5036031;28;20064;-73
2022/08/21 09:53:57;;;;;;;1.85;0.68;;;22.30;99.90;;;;;;5053248;28;20024;-73
2022/08/21 09:59:30;;;;;;;4.50;1.08;;;22.00;99.90;;;;;;5054262;28;20099;-73
2022/08/21 10:01:57;;;;;;;3.30;1.00;;;22.00;99.90;;;;;;5054972;28;20028;-74
2022/08/21 10:04:31;;;;;;;5.38;1.45;;;22.10;99.90;;;;;;5052601;28;21437;-74
2022/08/21 10:07:14;;;;;;;7.18;1.38;;;22.20;99.90;;;;;;5054356;28;20025;-71
2022/08/21 10:09:41;;;;;;;2.42;1.45;;;22.40;99.90;;;;;;5054071;28;20029;-73
2022/08/21 10:12:29;;;;;;;9.25;1.70;;;22.50;99.90;;;;;;5053977;28;20063;-80
2022/08/21 10:15:20;;;;;;;3.42;1.30;;;22.60;99.90;;;;;;5035814;28;20033;-71
2022/08/21 10:17:57;;;;;;;1.92;1.20;;;22.70;99.90;;;;;;5040703;28;20516;-71
2022/08/21 10:20:40;;;;;;;7.88;1.30;;;22.90;99.90;;;;;;5054166;28;20028;-72
2022/08/21 10:23:29;;;;;;;2.00;1.10;;;23.00;99.90;;;;;;5053070;28;20028;-73
2022/08/21 10:26:30;;;;;;;5.53;1.00;;;23.10;99.90;;;;;;5053009;28;20128;-71
2022/08/21 10:29:07;;;;;;;2.78;1.02;;;23.30;99.90;;;;;;5052940;28;20024;-72
2022/08/21 10:31:33;;;;;;;1.55;1.05;;;23.40;99.90;;;;;;5053455;28;20089;-74
2022/08/21 10:34:32;;;;;;;8.57;1.85;;;23.60;99.90;;;;;;5052715;28;20060;-73
2022/08/21 10:37:25;;;;;;;6.57;1.35;;;23.60;99.90;;;;;;5046987;28;20037;-74
2022/08/21 10:40:09;;;;;;;2.65;1.35;;;23.70;99.90;;;;;;5034532;28;20041;-73
2022/08/21 10:42:47;;;;;;;4.55;1.25;;;23.80;99.90;;;;;;5053161;28;20031;-71
2022/08/21 10:45:21;;;;;;;2.88;1.30;;;23.90;99.90;;;;;;5050776;28;20021;-73
2022/08/21 10:47:56;;;;;;;1.08;0.75;;;24.00;99.90;;;;;;5051078;28;20060;-72
2022/08/21 10:50:39;;;;;;;2.92;0.70;;;24.20;99.90;;;;;;5044945;28;20466;-73
2022/08/21 10:53:25;;;;;;;1.55;0.77;;;24.20;99.90;;;;;;5053204;28;20021;-74
2022/08/21 10:56:21;;;;;;;2.83;1.52;;;24.10;99.90;;;;;;5035344;28;20017;-79
2022/08/21 10:59:02;;;;;;;5.40;1.23;;;23.80;99.90;;;;;;5051276;28;20037;-71
2022/08/21 11:01:46;;;;;;;1.77;1.33;;;23.50;99.90;;;;;;5052673;28;20029;-75
2022/08/21 11:04:25;;;;;;;0.98;0.93;;;23.40;99.90;;;;;;5034759;28;20042;-72
2022/08/21 11:06:58;;;;;;;4.45;1.30;;;23.50;99.90;;;;;;5052720;28;20045;-73
2022/08/21 11:09:26;;;;;;;1.83;0.83;;;23.70;99.90;;;;;;5052090;28;20064;-73
2022/08/21 11:12:06;;;;;;;1.10;0.47;;;23.80;99.90;;;;;;5051545;28;20040;-72
2022/08/21 11:14:58;;;;;;;2.55;0.85;;;24.00;99.90;;;;;;5051082;28;20040;-71
2022/08/21 11:17:33;;;;;;;2.15;1.13;;;24.10;99.90;;;;;;5052820;28;20105;-73
2022/08/21 11:20:15;;;;;;;2.47;1.08;;;24.40;99.90;;;;;;5052782;28;20029;-76
2022/08/21 11:22:54;;;;;;;1.58;0.70;;;24.50;99.90;;;;;;5052906;28;20030;-71
2022/08/21 11:25:30;;;;;;;1.90;0.80;;;24.50;99.90;;;;;;5051923;28;20524;-74
2022/08/21 11:28:21;;;;;;;2.42;1.23;;;24.60;99.90;;;;;;5052345;28;20078;-72
2022/08/21 11:31:09;;;;;;;1.13;0.77;;;24.70;99.90;;;;;;5051862;28;20029;-70
2022/08/21 11:34:01;;;;;;;0.80;0.80;;;24.80;99.90;;;;;;5051563;28;20068;-72
2022/08/21 11:36:36;;;;;;;2.13;0.70;;;25.00;99.90;;;;;;5050811;28;20101;-74
2022/08/21 11:39:37;;;;;;;2.10;1.25;;;25.20;99.90;;;;;;5051745;28;20024;-72
2022/08/21 11:42:29;;;;;;;1.58;0.82;;;25.30;99.90;;;;;;5042966;28;20052;-75
2022/08/21 11:45:16;;;;;;;3.80;0.90;;;25.50;99.90;;;;;;5050267;28;20056;-73
2022/08/21 11:47:51;;;;;;;1.60;0.80;;;25.50;99.90;;;;;;5047287;28;20049;-73
2022/08/21 11:50:28;;;;;;;1.23;0.95;;;25.60;99.90;;;;;;5051068;28;20025;-74
2022/08/21 11:53:04;;;;;;;1.25;0.82;;;25.60;99.90;;;;;;5051458;28;20033;-74
2022/08/21 11:55:45;;;;;;;1.00;0.90;;;25.40;99.90;;;;;;5050241;28;20025;-71
2022/08/21 11:58:16;;;;;;;2.50;1.00;;;25.40;99.90;;;;;;5051311;28;20040;-71
2022/08/21 12:01:08;;;;;;;2.15;1.02;;;25.30;99.90;;;;;;5052002;28;20602;-72
2022/08/21 12:04:03;;;;;;;9.77;1.10;;;25.10;99.90;;;;;;5041296;28;20404;-73
2022/08/21 12:06:35;;;;;;;3.55;1.00;;;25.00;99.90;;;;;;5051983;28;20033;-76
2022/08/21 12:09:07;;;;;;;1.52;0.93;;;25.10;99.90;;;;;;5051338;28;20056;-71
2022/08/21 12:11:59;;;;;;;2.33;1.02;;;25.30;99.90;;;;;;5050643;28;20029;-74
2022/08/21 12:14:47;;;;;;;1.75;0.82;;;25.30;99.90;;;;;;5034146;28;20025;-77
2022/08/21 12:17:34;;;;;;;1.60;1.20;;;25.20;99.90;;;;;;5050818;28;20433;-72
2022/08/21 12:20:16;;;;;;;0.95;0.65;;;25.10;99.90;;;;;;5051876;28;20041;-71
2022/08/21 12:22:53;;;;;;;1.85;1.08;;;24.90;99.90;;;;;;5052012;28;20056;-72
2022/08/21 12:25:22;;;;;;;2.42;0.80;;;25.20;99.90;;;;;;5048658;28;20595;-74
2022/08/21 12:27:51;;;;;;;5.55;1.05;;;25.60;99.90;;;;;;5051804;28;20025;-72
2022/08/21 12:30:26;;;;;;;5.95;1.02;;;26.10;99.90;;;;;;5048983;28;20083;-73
2022/08/21 12:33:05;;;;;;;0.88;0.52;;;26.60;99.90;;;;;;5050320;28;20025;-75
2022/08/21 12:35:40;;;;;;;0.68;0.52;;;27.10;99.90;;;;;;5048520;28;20025;-74
2022/08/21 12:38:29;;;;;;;10.80;0.93;;;27.50;99.90;;;;;;5050925;28;20046;-71
2022/08/21 12:41:05;;;;;;;5.05;1.02;;;27.70;99.90;;;;;;5051686;28;20094;-73
2022/08/21 12:43:53;;;;;;;2.05;0.98;;;28.00;99.90;;;;;;5051211;28;20057;-73
2022/08/21 12:46:30;;;;;;;1.30;0.65;;;28.10;99.90;;;;;;5050308;28;20084;-75
2022/08/21 12:49:16;;;;;;;1.27;0.77;;;28.20;99.90;;;;;;5032490;28;20457;-74
2022/08/21 12:51:54;;;;;;;7.20;1.25;;;28.30;99.90;;;;;;5050473;28;20101;-71
2022/08/21 12:54:32;;;;;;;4.00;0.75;;;28.40;99.90;;;;;;5051488;28;20022;-72
2022/08/21 12:57:04;;;;;;;1.30;0.47;;;28.50;99.90;;;;;;5031761;28;20124;-76
2022/08/21 12:59:31;;;;;;;1.30;0.73;;;28.50;99.90;;;;;;5049100;28;20017;-75
2022/08/21 13:02:01;;;;;;;2.90;0.90;;;28.50;99.90;;;;;;5032393;28;20049;-74
2022/08/21 13:04:39;;;;;;;5.15;1.05;;;28.50;99.90;;;;;;5050674;28;20033;-74
2022/08/21 13:07:12;;;;;;;1.73;0.85;;;28.30;99.90;;;;;;5051155;28;20040;-75